LOT024W EPKT-EPWA
Flight info
| Callsign | LOT024W |
|---|---|
| Flight time | 0h 26m |
| Altitude | 25000 |
| Route | KURON T709 KOTEK M866 LOGDA |
| Aircraft | B736/M-SDE2E3FGHIRWXY/LB1 |
Departure
| Time | 2026-05-06 19:18 |
|---|---|
| Airport | Katowice Wojciech Korfanty International Airport (EPKT) |
Arrival
| Time | 2026-05-06 19:44 |
|---|---|
| Airport | Warsaw Chopin Airport (EPWA) |
| Time | Latitude | Longitude | Altitude | Speed | Heading |
|---|---|---|---|---|---|
| 2026-05-06 18:54 | 50.47178 | 19.07408 | 997 ft | 0 kts | 180° |
| 2026-05-06 19:08 | 50.47189 | 19.07408 | 997 ft | 4 kts | 180° |
| 2026-05-06 19:08 | 50.47212 | 19.07408 | 997 ft | 4 kts | 176° |
| 2026-05-06 19:08 | 50.47227 | 19.07402 | 1003 ft | 4 kts | 133° |
| 2026-05-06 19:08 | 50.47235 | 19.07367 | 997 ft | 4 kts | 90° |
| 2026-05-06 19:09 | 50.47235 | 19.07351 | 997 ft | 0 kts | 90° |
| 2026-05-06 19:12 | 50.47235 | 19.07369 | 997 ft | 3 kts | 90° |
| 2026-05-06 19:12 | 50.47235 | 19.07420 | 997 ft | 7 kts | 90° |
| 2026-05-06 19:12 | 50.47234 | 19.07550 | 997 ft | 17 kts | 90° |
| 2026-05-06 19:13 | 50.47233 | 19.07775 | 1000 ft | 23 kts | 90° |
| 2026-05-06 19:13 | 50.47233 | 19.08030 | 997 ft | 23 kts | 90° |
| 2026-05-06 19:13 | 50.47233 | 19.08273 | 1000 ft | 22 kts | 89° |
| 2026-05-06 19:13 | 50.47231 | 19.08558 | 1003 ft | 30 kts | 90° |
| 2026-05-06 19:14 | 50.47232 | 19.08922 | 997 ft | 36 kts | 90° |
| 2026-05-06 19:14 | 50.47231 | 19.09290 | 1000 ft | 28 kts | 90° |
| 2026-05-06 19:14 | 50.47296 | 19.09389 | 1000 ft | 13 kts | 359° |
| 2026-05-06 19:14 | 50.47401 | 19.09389 | 999 ft | 17 kts | 1° |
| 2026-05-06 19:15 | 50.47479 | 19.09391 | 1000 ft | 0 kts | 0° |
| 2026-05-06 19:16 | 50.47495 | 19.09391 | 998 ft | 9 kts | 0° |
| 2026-05-06 19:16 | 50.47550 | 19.09389 | 999 ft | 6 kts | 353° |
| 2026-05-06 19:16 | 50.47593 | 19.09347 | 999 ft | 5 kts | 287° |
| 2026-05-06 19:16 | 50.47596 | 19.09308 | 1000 ft | 0 kts | 272° |
| 2026-05-06 19:17 | 50.47596 | 19.09254 | 1001 ft | 27 kts | 269° |
| 2026-05-06 19:17 | 50.47594 | 19.08560 | 997 ft | 100 kts | 270° |
| 2026-05-06 19:17 | 50.47592 | 19.07115 | 1034 ft | 155 kts | 266° |
| 2026-05-06 19:18 | 50.47602 | 19.05379 | 1466 ft | 170 kts | 268° |
| 2026-05-06 19:18 | 50.47611 | 19.03577 | 2367 ft | 153 kts | 264° |
| 2026-05-06 19:18 | 50.47620 | 19.01890 | 3022 ft | 156 kts | 265° |
| 2026-05-06 19:18 | 50.47626 | 19.00071 | 3330 ft | 183 kts | 266° |
| 2026-05-06 19:19 | 50.47654 | 18.97912 | 3578 ft | 211 kts | 272° |
| 2026-05-06 19:19 | 50.48271 | 18.95659 | 3791 ft | 244 kts | 306° |
| 2026-05-06 19:19 | 50.49702 | 18.94119 | 4241 ft | 265 kts | 337° |
| 2026-05-06 19:19 | 50.51623 | 18.93927 | 4683 ft | 289 kts | 11° |
| 2026-05-06 19:20 | 50.53450 | 18.95300 | 5376 ft | 296 kts | 42° |
| 2026-05-06 19:20 | 50.54679 | 18.97920 | 6202 ft | 296 kts | 62° |
| 2026-05-06 19:20 | 50.55857 | 19.00744 | 6993 ft | 302 kts | 57° |
| 2026-05-06 19:20 | 50.57090 | 19.03477 | 7894 ft | 304 kts | 56° |
| 2026-05-06 19:21 | 50.58330 | 19.06194 | 8805 ft | 307 kts | 57° |
| 2026-05-06 19:21 | 50.59150 | 19.08000 | 9414 ft | 309 kts | 57° |
| 2026-05-06 19:21 | 50.60614 | 19.11246 | 10309 ft | 320 kts | 57° |
| 2026-05-06 19:21 | 50.61915 | 19.14159 | 10545 ft | 347 kts | 57° |
| 2026-05-06 19:22 | 50.63354 | 19.17403 | 10919 ft | 366 kts | 57° |
| 2026-05-06 19:22 | 50.64812 | 19.20697 | 11635 ft | 373 kts | 57° |
| 2026-05-06 19:22 | 50.66312 | 19.24094 | 12514 ft | 377 kts | 57° |
| 2026-05-06 19:22 | 50.67814 | 19.27505 | 13371 ft | 381 kts | 57° |
| 2026-05-06 19:23 | 50.69333 | 19.30963 | 14144 ft | 386 kts | 57° |
| 2026-05-06 19:23 | 50.70876 | 19.34484 | 14899 ft | 392 kts | 57° |
| 2026-05-06 19:23 | 50.72438 | 19.38056 | 15653 ft | 397 kts | 57° |
| 2026-05-06 19:23 | 50.74014 | 19.41666 | 16424 ft | 402 kts | 56° |
| 2026-05-06 19:24 | 50.75616 | 19.45338 | 17174 ft | 408 kts | 56° |
| 2026-05-06 19:24 | 50.77282 | 19.49008 | 17896 ft | 415 kts | 51° |
| 2026-05-06 19:24 | 50.79312 | 19.52255 | 18573 ft | 419 kts | 41° |
| 2026-05-06 19:24 | 50.81516 | 19.55323 | 19267 ft | 423 kts | 40° |
| 2026-05-06 19:25 | 50.83754 | 19.58367 | 19962 ft | 427 kts | 40° |
| 2026-05-06 19:25 | 50.86035 | 19.61465 | 20646 ft | 431 kts | 40° |
| 2026-05-06 19:25 | 50.88327 | 19.64599 | 21303 ft | 435 kts | 40° |
| 2026-05-06 19:25 | 50.90624 | 19.67769 | 21954 ft | 440 kts | 41° |
| 2026-05-06 19:26 | 50.92935 | 19.70982 | 22613 ft | 444 kts | 41° |
| 2026-05-06 19:26 | 50.95256 | 19.74227 | 23259 ft | 448 kts | 41° |
| 2026-05-06 19:26 | 50.97613 | 19.77536 | 23837 ft | 452 kts | 41° |
| 2026-05-06 19:26 | 50.99965 | 19.80846 | 24397 ft | 455 kts | 41° |
| 2026-05-06 19:27 | 51.02358 | 19.84219 | 24784 ft | 460 kts | 41° |
| 2026-05-06 19:27 | 51.04754 | 19.87600 | 24785 ft | 459 kts | 41° |
| 2026-05-06 19:27 | 51.07000 | 19.91037 | 24778 ft | 441 kts | 51° |
| 2026-05-06 19:27 | 51.08623 | 19.95022 | 24801 ft | 420 kts | 63° |
| 2026-05-06 19:28 | 51.09933 | 19.99073 | 24787 ft | 404 kts | 65° |
| 2026-05-06 19:28 | 51.11353 | 20.02820 | 24772 ft | 391 kts | 47° |
| 2026-05-06 19:28 | 51.13458 | 20.05398 | 24731 ft | 379 kts | 27° |
| 2026-05-06 19:28 | 51.15858 | 20.07330 | 24161 ft | 387 kts | 24° |
| 2026-05-06 19:29 | 51.18252 | 20.09596 | 23973 ft | 413 kts | 40° |
| 2026-05-06 19:29 | 51.20160 | 20.12993 | 23873 ft | 413 kts | 58° |
| 2026-05-06 19:29 | 51.21554 | 20.16926 | 23820 ft | 400 kts | 65° |
| 2026-05-06 19:29 | 51.22786 | 20.20846 | 23792 ft | 386 kts | 66° |
| 2026-05-06 19:30 | 51.23564 | 20.23379 | 23776 ft | 376 kts | 66° |
| 2026-05-06 19:30 | 51.25281 | 20.28028 | 23529 ft | 368 kts | 47° |
| 2026-05-06 19:30 | 51.26591 | 20.29801 | 22875 ft | 377 kts | 30° |
| 2026-05-06 19:30 | 51.28877 | 20.32107 | 21670 ft | 397 kts | 35° |
| 2026-05-06 19:31 | 51.31319 | 20.34354 | 20502 ft | 413 kts | 26° |
| 2026-05-06 19:31 | 51.33758 | 20.36895 | 19609 ft | 421 kts | 37° |
| 2026-05-06 19:31 | 51.38232 | 20.42956 | 18286 ft | 421 kts | 41° |
| 2026-05-06 19:32 | 51.40440 | 20.45994 | 17683 ft | 417 kts | 39° |
| 2026-05-06 19:32 | 51.42715 | 20.48816 | 17111 ft | 412 kts | 36° |
| 2026-05-06 19:32 | 51.45021 | 20.51518 | 16542 ft | 407 kts | 35° |
| 2026-05-06 19:32 | 51.47313 | 20.54164 | 15978 ft | 403 kts | 35° |
| 2026-05-06 19:33 | 51.49597 | 20.56806 | 15404 ft | 400 kts | 36° |
| 2026-05-06 19:33 | 51.51832 | 20.59415 | 14873 ft | 396 kts | 36° |
| 2026-05-06 19:33 | 51.54016 | 20.61987 | 14426 ft | 391 kts | 36° |
| 2026-05-06 19:33 | 51.56164 | 20.64533 | 14267 ft | 377 kts | 36° |
| 2026-05-06 19:34 | 51.58259 | 20.67026 | 13950 ft | 369 kts | 36° |
| 2026-05-06 19:34 | 51.60328 | 20.69494 | 13451 ft | 367 kts | 36° |
| 2026-05-06 19:34 | 51.62381 | 20.71948 | 12914 ft | 365 kts | 36° |
| 2026-05-06 19:34 | 51.64401 | 20.74366 | 12441 ft | 363 kts | 37° |
| 2026-05-06 19:35 | 51.66412 | 20.76775 | 11977 ft | 359 kts | 37° |
| 2026-05-06 19:35 | 51.68409 | 20.79171 | 11523 ft | 356 kts | 37° |
| 2026-05-06 19:35 | 51.70380 | 20.81539 | 11063 ft | 354 kts | 37° |
| 2026-05-06 19:35 | 51.72343 | 20.83899 | 10610 ft | 351 kts | 37° |
| 2026-05-06 19:36 | 51.74324 | 20.86282 | 10175 ft | 348 kts | 37° |
| 2026-05-06 19:36 | 51.76233 | 20.88582 | 9723 ft | 341 kts | 37° |
| 2026-05-06 19:36 | 51.78125 | 20.90865 | 8981 ft | 337 kts | 37° |
| 2026-05-06 19:36 | 51.79999 | 20.93128 | 8185 ft | 336 kts | 37° |
| 2026-05-06 19:37 | 51.81864 | 20.95382 | 7439 ft | 333 kts | 37° |
| 2026-05-06 19:37 | 51.83708 | 20.97613 | 6752 ft | 329 kts | 37° |
| 2026-05-06 19:37 | 51.85538 | 20.99831 | 6238 ft | 319 kts | 37° |
| 2026-05-06 19:37 | 51.87237 | 21.01891 | 6107 ft | 299 kts | 37° |
| 2026-05-06 19:38 | 51.88874 | 21.03878 | 5704 ft | 291 kts | 37° |
| 2026-05-06 19:38 | 51.90483 | 21.05833 | 5173 ft | 289 kts | 36° |
| 2026-05-06 19:38 | 51.92094 | 21.07790 | 4668 ft | 286 kts | 36° |
| 2026-05-06 19:38 | 51.93674 | 21.09714 | 4154 ft | 284 kts | 36° |
| 2026-05-06 19:39 | 51.95254 | 21.11637 | 3644 ft | 281 kts | 36° |
| 2026-05-06 19:39 | 51.96859 | 21.13298 | 3392 ft | 266 kts | 17° |
| 2026-05-06 19:39 | 51.98601 | 21.13376 | 3266 ft | 236 kts | 336° |
| 2026-05-06 19:39 | 51.99900 | 21.12091 | 3165 ft | 214 kts | 320° |
| 2026-05-06 19:40 | 52.01171 | 21.10743 | 3082 ft | 217 kts | 324° |
| 2026-05-06 19:40 | 52.02482 | 21.09455 | 3026 ft | 213 kts | 324° |
| 2026-05-06 19:40 | 52.03713 | 21.08268 | 3022 ft | 199 kts | 325° |
| 2026-05-06 19:40 | 52.04873 | 21.07103 | 2732 ft | 196 kts | 323° |
| 2026-05-06 19:41 | 52.06009 | 21.05995 | 2466 ft | 187 kts | 327° |
| 2026-05-06 19:41 | 52.07127 | 21.04998 | 2212 ft | 170 kts | 327° |
| 2026-05-06 19:41 | 52.08135 | 21.04115 | 1991 ft | 155 kts | 327° |
| 2026-05-06 19:41 | 52.09037 | 21.03324 | 1798 ft | 144 kts | 327° |
| 2026-05-06 19:42 | 52.09922 | 21.02545 | 1630 ft | 143 kts | 328° |
| 2026-05-06 19:42 | 52.10807 | 21.01768 | 1436 ft | 143 kts | 328° |
| 2026-05-06 19:42 | 52.11666 | 21.01014 | 1243 ft | 139 kts | 329° |
| 2026-05-06 19:42 | 52.12524 | 21.00262 | 1072 ft | 140 kts | 330° |
| 2026-05-06 19:43 | 52.13377 | 20.99497 | 879 ft | 142 kts | 328° |
| 2026-05-06 19:43 | 52.14257 | 20.98729 | 659 ft | 141 kts | 336° |
| 2026-05-06 19:43 | 52.15100 | 20.98006 | 431 ft | 133 kts | 331° |
| 2026-05-06 19:43 | 52.15923 | 20.97276 | 345 ft | 131 kts | 332° |
| 2026-05-06 19:44 | 52.16604 | 20.96675 | 337 ft | 82 kts | 332° |
| 2026-05-06 19:44 | 52.16917 | 20.96513 | 335 ft | 25 kts | 360° |
| 2026-05-06 19:44 | 52.17040 | 20.96518 | 336 ft | 11 kts | 8° |
| 2026-05-06 19:44 | 52.17089 | 20.96573 | 337 ft | 7 kts | 56° |
| 2026-05-06 19:45 | 52.17092 | 20.96579 | 337 ft | 0 kts | 57° |
| 2026-05-06 19:45 | 52.17105 | 20.96613 | 333 ft | 8 kts | 59° |
| 2026-05-06 19:45 | 52.17139 | 20.96713 | 338 ft | 11 kts | 61° |
| 2026-05-06 19:46 | 52.17159 | 20.96822 | 338 ft | 10 kts | 111° |
| 2026-05-06 19:46 | 52.17103 | 20.96890 | 338 ft | 10 kts | 154° |
| 2026-05-06 19:46 | 52.17062 | 20.96924 | 336 ft | 10 kts | 152° |
| 2026-05-06 19:46 | 52.17002 | 20.96976 | 336 ft | 10 kts | 152° |
| 2026-05-06 19:47 | 52.16977 | 20.97037 | 335 ft | 5 kts | 89° |
| 2026-05-06 19:47 | 52.16989 | 20.97094 | 338 ft | 5 kts | 70° |
| 2026-05-06 19:47 | 52.16999 | 20.97138 | 336 ft | 0 kts | 70° |
| 2026-05-06 19:47 | 52.17001 | 20.97147 | 338 ft | 2 kts | 70° |
| 2026-05-06 19:48 | 52.17002 | 20.97150 | 338 ft | 0 kts | 70° |